createdAt,value
2022-11-17T00:00:30.419Z,4.97
2022-11-17T00:02:57.200Z,5.63
2022-11-17T00:05:26.452Z,4.33
2022-11-17T00:07:55.239Z,5.20
2022-11-17T00:10:21.999Z,4.17
2022-11-17T00:13:07.283Z,3.83
2022-11-17T00:15:34.026Z,4.67
2022-11-17T00:18:19.343Z,3.80
2022-11-17T00:21:07.173Z,3.60
2022-11-17T00:23:50.231Z,2.90
2022-11-17T00:26:19.081Z,4.27
2022-11-17T00:28:47.978Z,4.10
2022-11-17T00:31:33.321Z,4.10
2022-11-17T00:34:09.016Z,4.77
2022-11-17T00:36:44.224Z,3.37
2022-11-17T00:39:13.822Z,4.97
2022-11-17T00:41:43.041Z,3.33
2022-11-17T00:44:09.965Z,4.03
2022-11-17T00:46:37.348Z,3.70
2022-11-17T00:49:04.882Z,2.87
2022-11-17T00:51:34.201Z,3.83
2022-11-17T00:54:01.255Z,3.00
2022-11-17T00:56:28.199Z,2.70
2022-11-17T00:58:55.049Z,3.30
2022-11-17T01:01:24.578Z,3.13
2022-11-17T01:03:51.489Z,2.60
2022-11-17T01:06:19.690Z,2.73
2022-11-17T01:08:48.959Z,2.90
2022-11-17T01:11:17.518Z,3.27
2022-11-17T01:13:47.302Z,2.73
2022-11-17T01:16:15.683Z,4.87
2022-11-17T01:18:42.854Z,3.27
2022-11-17T01:21:17.005Z,3.83
2022-11-17T01:23:44.286Z,3.70
2022-11-17T01:26:14.382Z,3.30
2022-11-17T01:28:41.404Z,3.37
2022-11-17T01:31:12.851Z,3.67
2022-11-17T01:33:41.993Z,2.80
2022-11-17T01:36:13.461Z,3.10
2022-11-17T01:38:42.454Z,3.50
2022-11-17T01:41:14.541Z,3.33
2022-11-17T01:43:42.535Z,3.73
2022-11-17T01:46:34.610Z,3.97
2022-11-17T01:49:21.391Z,4.77
2022-11-17T01:51:57.487Z,3.43
2022-11-17T01:54:25.288Z,3.13
2022-11-17T01:56:54.263Z,3.57
2022-11-17T01:59:34.374Z,3.07
2022-11-17T02:02:01.409Z,3.73
2022-11-17T02:04:38.003Z,5.00
2022-11-17T02:07:15.664Z,3.43
2022-11-17T02:09:42.438Z,4.33
2022-11-17T02:12:12.789Z,3.60
2022-11-17T02:14:39.868Z,4.40
2022-11-17T02:17:13.049Z,3.43
2022-11-17T02:19:41.896Z,4.60
2022-11-17T02:22:20.573Z,4.27
2022-11-17T02:25:12.244Z,5.97
2022-11-17T02:27:47.835Z,3.00
2022-11-17T02:30:16.740Z,11.33
2022-11-17T02:33:08.254Z,3.27
2022-11-17T02:35:44.052Z,4.13
2022-11-17T02:38:28.663Z,5.87
2022-11-17T02:41:04.208Z,3.53
2022-11-17T02:43:52.806Z,3.70
2022-11-17T02:46:20.575Z,3.80
2022-11-17T02:49:02.115Z,4.67
2022-11-17T02:51:28.836Z,3.03
2022-11-17T02:54:00.717Z,4.87
2022-11-17T02:56:27.525Z,4.30
2022-11-17T02:59:00.429Z,5.07
2022-11-17T03:01:44.971Z,5.00
2022-11-17T03:04:49.998Z,3.23
2022-11-17T03:07:30.118Z,5.63
2022-11-17T03:10:11.327Z,4.87
2022-11-17T03:13:01.590Z,5.20
2022-11-17T03:15:38.222Z,6.17
2022-11-17T03:18:10.362Z,4.13
2022-11-17T03:21:05.764Z,3.83
2022-11-17T03:23:41.522Z,4.83
2022-11-17T03:26:09.832Z,4.30
2022-11-17T03:28:36.545Z,4.17
2022-11-17T03:31:04.178Z,4.53
2022-11-17T03:33:31.109Z,3.43
2022-11-17T03:36:03.846Z,3.20
2022-11-17T03:38:35.338Z,7.43
2022-11-17T03:41:03.186Z,5.97
2022-11-17T03:43:33.139Z,5.60
2022-11-17T03:46:04.158Z,3.97
2022-11-17T03:49:13.600Z,3.97
2022-11-17T03:51:40.420Z,4.90
2022-11-17T03:54:07.366Z,3.90
2022-11-17T03:57:13.202Z,4.67
2022-11-17T03:59:55.793Z,3.47
2022-11-17T04:02:25.254Z,4.07
2022-11-17T04:05:07.124Z,4.27
2022-11-17T04:07:34.994Z,4.33
2022-11-17T04:10:02.053Z,5.60
2022-11-17T04:12:47.426Z,3.90
2022-11-17T04:15:32.916Z,18.30
2022-11-17T04:17:59.830Z,4.57
2022-11-17T04:20:26.519Z,3.80
2022-11-17T04:23:07.727Z,4.00
2022-11-17T04:25:59.626Z,4.87
2022-11-17T04:28:41.290Z,6.43
2022-11-17T04:31:36.439Z,3.20
2022-11-17T04:34:05.630Z,5.07
2022-11-17T04:36:34.061Z,3.57
2022-11-17T04:39:01.360Z,5.20
2022-11-17T04:41:47.531Z,5.20
2022-11-17T04:44:17.985Z,3.10
2022-11-17T04:46:47.287Z,3.67
2022-11-17T04:49:14.977Z,4.33
2022-11-17T04:51:41.832Z,4.10
2022-11-17T04:54:09.221Z,3.83
2022-11-17T04:56:38.261Z,4.30
2022-11-17T04:59:07.281Z,4.90
2022-11-17T05:01:34.211Z,3.00
2022-11-17T05:04:04.743Z,3.10
2022-11-17T05:06:51.857Z,4.00
2022-11-17T05:09:18.666Z,4.33
2022-11-17T05:12:13.860Z,3.03
2022-11-17T05:14:40.567Z,4.43
2022-11-17T05:17:10.834Z,9.23
2022-11-17T05:19:45.520Z,4.90
2022-11-17T05:22:40.520Z,3.13
2022-11-17T05:25:07.624Z,4.67
2022-11-17T05:27:34.423Z,5.53
2022-11-17T05:30:04.576Z,3.70
2022-11-17T05:32:31.265Z,3.50
2022-11-17T05:35:00.270Z,4.30
2022-11-17T05:37:29.453Z,3.70
2022-11-17T05:39:56.159Z,9.17
2022-11-17T05:42:22.890Z,3.40
2022-11-17T05:44:49.696Z,5.20
2022-11-17T05:47:16.671Z,4.53
2022-11-17T05:49:45.589Z,3.13
2022-11-17T05:52:12.317Z,3.33
2022-11-17T05:54:39.029Z,3.37
2022-11-17T05:57:12.048Z,3.10
2022-11-17T05:59:47.047Z,4.63
2022-11-17T06:02:21.047Z,3.93
2022-11-17T06:04:51.399Z,3.93
2022-11-17T06:07:20.899Z,3.43
2022-11-17T06:09:50.173Z,4.13
2022-11-17T06:12:17.177Z,4.30
2022-11-17T06:14:43.879Z,3.80
2022-11-17T06:17:21.801Z,5.57
2022-11-17T06:19:57.863Z,5.73
2022-11-17T06:22:25.706Z,6.37
2022-11-17T06:24:52.426Z,3.60
2022-11-17T06:27:19.122Z,5.03
2022-11-17T06:29:46.929Z,3.83
2022-11-17T06:32:14.703Z,4.80
2022-11-17T06:34:42.586Z,3.87
2022-11-17T06:37:11.332Z,3.87
2022-11-17T06:39:38.072Z,3.23
2022-11-17T06:42:04.905Z,4.00
2022-11-17T06:44:33.778Z,4.23
2022-11-17T06:47:00.595Z,7.70
2022-11-17T06:49:27.657Z,4.47
2022-11-17T06:51:54.487Z,20.47
2022-11-17T06:54:21.171Z,5.70
2022-11-17T06:56:49.721Z,3.80
2022-11-17T06:59:17.147Z,6.33
2022-11-17T07:01:44.055Z,3.17
2022-11-17T07:04:15.798Z,3.80
2022-11-17T07:06:44.979Z,5.10
2022-11-17T07:09:11.673Z,4.43
2022-11-17T07:11:38.368Z,3.80
2022-11-17T07:14:05.062Z,7.60
2022-11-17T07:16:32.778Z,4.33
2022-11-17T07:18:59.677Z,5.20
2022-11-17T07:21:26.418Z,3.60
2022-11-17T07:23:53.186Z,5.10
2022-11-17T07:26:22.381Z,4.13
2022-11-17T07:28:49.145Z,3.80
2022-11-17T07:31:15.966Z,6.33
2022-11-17T07:33:42.707Z,6.07
2022-11-17T07:36:11.056Z,7.63
2022-11-17T07:38:38.975Z,21.87
2022-11-17T07:41:07.017Z,4.73
2022-11-17T07:43:34.484Z,7.03
2022-11-17T07:46:12.175Z,5.87
2022-11-17T07:48:39.347Z,8.03
2022-11-17T07:51:06.421Z,5.17
2022-11-17T07:53:35.869Z,5.07
2022-11-17T07:56:09.847Z,5.37
2022-11-17T07:58:37.579Z,5.10
2022-11-17T08:01:05.970Z,5.77
2022-11-17T08:03:32.840Z,6.23
2022-11-17T08:06:05.746Z,5.60
2022-11-17T08:08:35.319Z,5.17
2022-11-17T08:11:03.664Z,10.27
2022-11-17T08:13:30.497Z,5.43
2022-11-17T08:15:57.627Z,6.73
2022-11-17T08:18:24.437Z,6.33
2022-11-17T08:20:51.693Z,7.60
2022-11-17T08:23:20.776Z,6.37
2022-11-17T08:25:50.080Z,5.87
2022-11-17T08:28:16.802Z,6.70
2022-11-17T08:30:44.379Z,6.37
2022-11-17T08:33:11.103Z,12.67
2022-11-17T08:35:37.939Z,6.63
2022-11-17T08:38:04.691Z,11.57
2022-11-17T08:40:31.439Z,7.23
2022-11-17T08:43:01.292Z,8.70
2022-11-17T08:45:30.616Z,7.50
2022-11-17T08:47:57.433Z,6.50
2022-11-17T08:50:24.221Z,8.07
2022-11-17T08:52:52.068Z,6.37
2022-11-17T08:55:18.949Z,7.10
2022-11-17T08:57:45.746Z,10.37
2022-11-17T09:00:12.936Z,6.47
2022-11-17T09:02:39.754Z,6.47
2022-11-17T09:05:07.090Z,5.63
2022-11-17T09:07:35.043Z,7.40
2022-11-17T09:10:02.285Z,6.83
2022-11-17T09:12:31.268Z,5.73
2022-11-17T09:14:58.030Z,7.33
2022-11-17T09:17:24.775Z,8.07
2022-11-17T09:19:53.751Z,7.67
2022-11-17T09:22:20.750Z,7.57
2022-11-17T09:24:47.458Z,7.70
2022-11-17T09:27:16.543Z,8.30
2022-11-17T09:29:45.508Z,7.17
2022-11-17T09:32:13.503Z,8.47
2022-11-17T09:34:44.314Z,8.70
2022-11-17T09:37:12.414Z,7.53
2022-11-17T09:39:39.192Z,16.83
2022-11-17T09:42:08.248Z,11.23
2022-11-17T09:44:40.265Z,8.93
2022-11-17T09:47:10.037Z,7.80
2022-11-17T09:50:17.865Z,7.53
2022-11-17T09:52:54.151Z,8.00
2022-11-17T09:55:33.950Z,9.57
2022-11-17T09:58:27.763Z,7.73
2022-11-17T10:00:54.486Z,9.17
2022-11-17T10:03:22.950Z,8.20
2022-11-17T10:05:49.935Z,8.73
2022-11-17T10:08:42.031Z,8.63
2022-11-17T10:11:31.687Z,9.63
2022-11-17T10:14:20.258Z,9.83
2022-11-17T10:16:53.818Z,9.80
2022-11-17T10:19:27.584Z,8.70
2022-11-17T10:22:05.846Z,8.77
2022-11-17T10:24:33.248Z,9.63
2022-11-17T10:27:00.102Z,11.83
2022-11-17T10:29:29.401Z,9.10
2022-11-17T10:31:56.135Z,13.50
2022-11-17T10:34:40.939Z,9.33
2022-11-17T10:37:31.854Z,13.40
2022-11-17T10:40:42.628Z,16.23
2022-11-17T10:43:12.155Z,12.80
2022-11-17T10:45:58.758Z,9.40
2022-11-17T10:48:32.959Z,9.90
2022-11-17T10:51:03.356Z,12.30
2022-11-17T10:53:42.826Z,11.90
2022-11-17T10:56:19.011Z,11.40
2022-11-17T10:59:12.658Z,11.67
2022-11-17T11:01:44.458Z,11.63
2022-11-17T11:04:46.689Z,10.73
2022-11-17T11:07:20.722Z,17.03
2022-11-17T11:10:02.806Z,11.87
2022-11-17T11:12:48.291Z,12.83
2022-11-17T11:15:22.850Z,11.43
2022-11-17T11:17:49.966Z,12.53
2022-11-17T11:20:18.336Z,10.83
2022-11-17T11:23:05.956Z,10.37
2022-11-17T11:25:43.924Z,10.60
2022-11-17T11:28:33.451Z,13.87
2022-11-17T11:31:07.955Z,8.83
2022-11-17T11:33:39.533Z,9.27
2022-11-17T11:36:19.306Z,8.50
2022-11-17T11:39:01.115Z,14.03
2022-11-17T11:41:36.829Z,9.77
2022-11-17T11:44:33.932Z,10.67
2022-11-17T11:47:19.576Z,10.07
2022-11-17T11:49:49.435Z,10.30
2022-11-17T11:52:21.364Z,10.03
2022-11-17T11:54:51.375Z,12.37
2022-11-17T11:57:26.232Z,10.73
2022-11-17T12:00:03.760Z,9.27
2022-11-17T12:02:40.411Z,15.33
2022-11-17T12:05:37.308Z,8.93
2022-11-17T12:08:10.220Z,8.80
2022-11-17T12:10:57.902Z,8.90
2022-11-17T12:13:26.721Z,9.03
2022-11-17T12:16:16.534Z,8.77
2022-11-17T12:18:43.470Z,8.90
2022-11-17T12:21:15.943Z,9.87
2022-11-17T12:24:04.514Z,9.53
2022-11-17T12:26:34.922Z,11.23
2022-11-17T12:29:22.027Z,9.97
2022-11-17T12:31:52.503Z,8.90
2022-11-17T12:34:30.689Z,10.77
2022-11-17T12:37:13.265Z,9.10
2022-11-17T12:39:54.780Z,9.93
2022-11-17T12:42:21.983Z,10.70
2022-11-17T12:45:05.703Z,9.10
2022-11-17T12:47:36.337Z,10.03
2022-11-17T12:50:18.592Z,10.10
2022-11-17T12:53:00.210Z,9.17
2022-11-17T12:55:35.511Z,7.70
2022-11-17T12:58:39.925Z,9.87
2022-11-17T13:01:16.040Z,6.77
2022-11-17T13:03:49.685Z,7.27
2022-11-17T13:09:08.092Z,8.40
2022-11-17T13:11:37.436Z,12.80
2022-11-17T13:14:11.375Z,7.07
2022-11-17T13:16:49.257Z,11.60
2022-11-17T13:19:32.787Z,7.40
2022-11-17T13:22:14.949Z,7.27
2022-11-17T13:24:45.721Z,8.37
2022-11-17T13:27:27.639Z,8.50
2022-11-17T13:30:15.264Z,7.70
2022-11-17T13:32:42.414Z,9.40
2022-11-17T13:35:32.770Z,8.70
2022-11-17T13:38:04.628Z,8.40
2022-11-17T13:40:31.663Z,8.73
2022-11-17T13:42:58.459Z,7.90
2022-11-17T13:45:27.389Z,6.30
2022-11-17T13:47:56.440Z,8.43
2022-11-17T13:50:32.074Z,6.67
2022-11-17T13:53:11.015Z,7.73
2022-11-17T13:55:37.766Z,7.50
2022-11-17T13:58:05.479Z,6.83
2022-11-17T14:00:32.307Z,6.90
2022-11-17T14:03:00.741Z,11.50
2022-11-17T14:05:28.304Z,10.37
2022-11-17T14:07:56.986Z,9.27
2022-11-17T14:10:31.507Z,7.60
2022-11-17T14:13:01.321Z,7.43
2022-11-17T14:15:41.998Z,7.50
2022-11-17T14:18:56.728Z,7.40
2022-11-17T14:21:23.433Z,7.20
2022-11-17T14:23:52.641Z,9.23
2022-11-17T14:26:23.449Z,7.60
2022-11-17T14:28:50.928Z,8.83
2022-11-17T14:31:18.052Z,7.27
2022-11-17T14:33:44.819Z,12.47
2022-11-17T14:36:19.500Z,7.10
2022-11-17T14:38:46.428Z,6.70
2022-11-17T14:41:15.439Z,9.20
2022-11-17T14:43:42.432Z,7.97
2022-11-17T14:46:21.808Z,11.27
2022-11-17T14:48:50.751Z,7.77
2022-11-17T14:51:18.698Z,9.83
2022-11-17T14:53:50.140Z,7.80
2022-11-17T14:56:20.448Z,8.83
2022-11-17T14:58:48.793Z,29.80
2022-11-17T15:01:20.101Z,10.33
2022-11-17T15:03:46.960Z,10.57
2022-11-17T15:06:19.569Z,9.57
2022-11-17T15:08:47.580Z,13.20
2022-11-17T15:11:16.195Z,15.77
2022-11-17T15:13:43.487Z,9.30
2022-11-17T15:16:10.242Z,11.77
2022-11-17T15:18:39.184Z,14.00
2022-11-17T15:21:09.862Z,11.87
2022-11-17T15:23:37.535Z,10.57
2022-11-17T15:26:08.874Z,10.10
2022-11-17T15:28:35.650Z,12.50
2022-11-17T15:31:10.102Z,12.07
2022-11-17T15:33:37.582Z,14.57
2022-11-17T15:36:05.097Z,11.40
2022-11-17T15:38:33.034Z,19.40
2022-11-17T15:41:00.173Z,13.77
2022-11-17T15:43:31.494Z,12.77
2022-11-17T15:46:05.511Z,15.10
2022-11-17T15:48:32.962Z,15.47
2022-11-17T15:51:00.449Z,13.73
2022-11-17T15:53:32.193Z,13.63
2022-11-17T15:56:08.728Z,13.47
2022-11-17T15:58:35.761Z,22.00
2022-11-17T16:01:12.555Z,19.17
2022-11-17T16:03:45.224Z,17.17
2022-11-17T16:06:17.145Z,19.03
2022-11-17T16:08:43.884Z,16.50
2022-11-17T16:11:13.133Z,18.63
2022-11-17T16:13:39.968Z,12.43
2022-11-17T16:16:07.327Z,15.87
2022-11-17T16:18:39.142Z,15.87
2022-11-17T16:21:12.348Z,14.73
2022-11-17T16:23:42.810Z,12.83
2022-11-17T16:26:10.531Z,11.07
2022-11-17T16:28:37.820Z,15.00
2022-11-17T16:31:20.628Z,12.40
2022-11-17T16:33:53.955Z,11.27
2022-11-17T16:36:21.883Z,8.80
2022-11-17T16:39:00.687Z,12.63
2022-11-17T16:41:29.810Z,12.23
2022-11-17T16:43:56.791Z,10.33
2022-11-17T16:46:27.049Z,10.07
2022-11-17T16:48:56.226Z,11.07
2022-11-17T16:51:25.179Z,11.30
2022-11-17T16:54:06.869Z,9.60
2022-11-17T16:56:33.909Z,9.43
2022-11-17T16:59:02.938Z,12.37
2022-11-17T17:01:34.621Z,11.43
2022-11-17T17:04:04.966Z,14.07
2022-11-17T17:06:31.711Z,15.97
2022-11-17T17:09:00.276Z,14.90
2022-11-17T17:11:29.198Z,13.77
2022-11-17T17:13:58.685Z,12.77
2022-11-17T17:16:27.644Z,16.47
2022-11-17T17:19:02.030Z,11.50
2022-11-17T17:21:31.351Z,12.00
2022-11-17T17:24:00.417Z,13.27
2022-11-17T17:26:30.412Z,11.40
2022-11-17T17:28:58.211Z,14.37
2022-11-17T17:31:25.466Z,10.17
2022-11-17T17:33:55.110Z,11.87
2022-11-17T17:36:24.863Z,15.67
2022-11-17T17:38:57.133Z,15.90
2022-11-17T17:41:25.561Z,11.37
2022-11-17T17:44:00.200Z,17.27
2022-11-17T17:46:29.709Z,15.73
2022-11-17T17:48:56.612Z,12.17
2022-11-17T17:51:26.331Z,13.30
2022-11-17T17:53:54.174Z,11.17
2022-11-17T17:56:21.212Z,12.03
2022-11-17T17:58:49.004Z,11.03
2022-11-17T18:01:19.838Z,15.07
2022-11-17T18:03:48.113Z,14.17
2022-11-17T18:06:18.439Z,14.73
2022-11-17T18:08:47.527Z,13.70
2022-11-17T18:11:19.417Z,14.30
2022-11-17T18:13:49.923Z,18.70
2022-11-17T18:16:21.742Z,17.43
2022-11-17T18:18:48.804Z,22.77
2022-11-17T18:21:17.090Z,17.73
2022-11-17T18:23:43.884Z,17.30
2022-11-17T18:26:31.956Z,20.50
2022-11-17T18:29:05.045Z,18.07
2022-11-17T18:31:34.938Z,18.70
2022-11-17T18:34:05.844Z,21.37
2022-11-17T18:36:32.650Z,20.60
2022-11-17T18:38:59.424Z,20.20
2022-11-17T18:41:26.570Z,25.57
2022-11-17T18:43:54.412Z,21.90
2022-11-17T18:46:22.397Z,19.80
2022-11-17T18:48:51.998Z,20.03
2022-11-17T18:51:23.114Z,22.73
2022-11-17T18:53:51.575Z,20.53
2022-11-17T18:56:25.969Z,21.57
2022-11-17T18:58:54.943Z,17.57
2022-11-17T19:01:25.857Z,21.20
2022-11-17T19:03:53.868Z,23.37
2022-11-17T19:06:22.459Z,18.43
2022-11-17T19:08:49.405Z,20.97
2022-11-17T19:11:18.707Z,19.83
2022-11-17T19:13:48.027Z,22.93
2022-11-17T19:16:25.231Z,21.73
2022-11-17T19:18:53.444Z,23.47
2022-11-17T19:21:26.092Z,23.03
2022-11-17T19:23:53.496Z,20.77
2022-11-17T19:26:30.157Z,24.40
2022-11-17T19:29:01.558Z,21.27
2022-11-17T19:31:30.749Z,22.47
2022-11-17T19:33:57.895Z,20.87
2022-11-17T19:36:25.445Z,20.90
2022-11-17T19:38:52.843Z,25.20
2022-11-17T19:41:23.355Z,24.50
2022-11-17T19:43:55.874Z,18.97
2022-11-17T19:46:25.660Z,22.90
2022-11-17T19:48:52.552Z,27.43
2022-11-17T19:51:20.428Z,18.13
2022-11-17T19:53:54.204Z,23.60
2022-11-17T19:56:21.621Z,23.03
2022-11-17T19:58:49.811Z,24.23
2022-11-17T20:01:23.362Z,25.60
2022-11-17T20:03:50.293Z,21.27
2022-11-17T20:06:18.549Z,20.13
2022-11-17T20:08:45.592Z,22.30
2022-11-17T20:11:17.265Z,20.83
2022-11-17T20:13:44.334Z,24.77
2022-11-17T20:16:13.721Z,23.17
2022-11-17T20:18:41.894Z,20.63
2022-11-17T20:21:08.999Z,19.73
2022-11-17T20:23:38.954Z,20.00
2022-11-17T20:26:12.475Z,21.80
2022-11-17T20:28:41.913Z,20.67
2022-11-17T20:31:12.033Z,20.23
2022-11-17T20:33:39.232Z,19.77
2022-11-17T20:36:11.701Z,21.37
2022-11-17T20:38:41.039Z,25.43
2022-11-17T20:41:07.820Z,21.13
2022-11-17T20:43:37.098Z,19.53
2022-11-17T20:46:03.945Z,20.60
2022-11-17T20:48:35.297Z,23.73
2022-11-17T20:51:05.967Z,19.13
2022-11-17T20:53:32.879Z,19.97
2022-11-17T20:56:00.470Z,19.37
2022-11-17T20:58:27.325Z,18.03
2022-11-17T21:00:54.234Z,19.33
2022-11-17T21:03:23.597Z,19.80
2022-11-17T21:05:59.031Z,20.60
2022-11-17T21:08:26.846Z,18.90
2022-11-17T21:10:57.333Z,21.43
2022-11-17T21:13:26.850Z,20.97
2022-11-17T21:16:08.082Z,17.23
2022-11-17T21:18:35.041Z,17.30
2022-11-17T21:21:04.532Z,19.20
2022-11-17T21:23:31.278Z,18.47
2022-11-17T21:26:09.865Z,19.63
2022-11-17T21:28:42.137Z,18.07
2022-11-17T21:31:14.464Z,19.77
2022-11-17T21:33:41.264Z,19.40
2022-11-17T21:36:12.691Z,19.90
2022-11-17T21:38:42.405Z,19.47
2022-11-17T21:41:13.314Z,21.83
2022-11-17T21:43:40.723Z,21.30
2022-11-17T21:46:12.469Z,21.73
2022-11-17T21:48:41.827Z,20.27
2022-11-17T21:51:18.063Z,19.17
2022-11-17T21:53:44.857Z,22.37
2022-11-17T21:56:11.890Z,20.93
2022-11-17T21:58:38.631Z,23.27
2022-11-17T22:01:14.922Z,24.97
2022-11-17T22:03:44.211Z,21.00
2022-11-17T22:06:20.119Z,22.77
2022-11-17T22:08:47.400Z,23.50
2022-11-17T22:11:37.849Z,22.00
2022-11-17T22:14:08.140Z,21.83
2022-11-17T22:16:36.173Z,22.67
2022-11-17T22:19:03.151Z,23.03
2022-11-17T22:21:29.983Z,25.07
2022-11-17T22:23:56.821Z,20.63
2022-11-17T22:26:23.674Z,23.47
2022-11-17T22:28:54.543Z,25.93
2022-11-17T22:31:21.690Z,24.90
2022-11-17T22:33:50.983Z,24.30
2022-11-17T22:36:20.332Z,24.80
2022-11-17T22:38:49.761Z,21.23
2022-11-17T22:41:21.523Z,22.57
2022-11-17T22:43:51.907Z,20.63
2022-11-17T22:46:21.529Z,23.83
2022-11-17T22:48:48.283Z,57.43
2022-11-17T22:51:38.177Z,24.93
2022-11-17T22:54:09.807Z,22.97
2022-11-17T22:56:36.691Z,24.43
2022-11-17T22:59:03.505Z,23.00
2022-11-17T23:01:32.351Z,23.43
2022-11-17T23:03:59.070Z,22.40
2022-11-17T23:06:28.527Z,24.00
2022-11-17T23:08:55.799Z,26.13
2022-11-17T23:11:36.624Z,21.93
2022-11-17T23:14:04.338Z,31.90
2022-11-17T23:16:32.145Z,23.47
2022-11-17T23:18:58.854Z,22.93
2022-11-17T23:21:30.186Z,24.27
2022-11-17T23:23:59.066Z,25.53
2022-11-17T23:26:28.280Z,30.00
2022-11-17T23:28:55.415Z,27.47
2022-11-17T23:31:22.105Z,29.60
2022-11-17T23:33:51.377Z,30.17
2022-11-17T23:36:21.982Z,33.67
2022-11-17T23:38:49.116Z,29.77
2022-11-17T23:41:16.942Z,29.70
2022-11-17T23:43:43.731Z,28.67
2022-11-17T23:46:15.510Z,29.70
2022-11-17T23:48:47.382Z,39.33
2022-11-17T23:51:16.240Z,31.83
2022-11-17T23:53:43.099Z,30.87
2022-11-17T23:56:10.001Z,29.77
2022-11-17T23:58:37.118Z,26.90
